createdAt,value
2024-05-09T00:02:17.511Z,8.27
2024-05-09T00:07:19.512Z,8.21
2024-05-09T00:12:21.579Z,8.09
2024-05-09T00:17:23.701Z,7.99
2024-05-09T00:22:25.671Z,7.90
2024-05-09T00:27:27.513Z,7.81
2024-05-09T00:32:29.499Z,7.72
2024-05-09T00:37:31.478Z,7.63
2024-05-09T00:42:37.910Z,7.53
2024-05-09T00:47:42.921Z,7.54
2024-05-09T00:52:46.731Z,7.37
2024-05-09T00:57:48.674Z,7.28
2024-05-09T01:02:50.627Z,7.23
2024-05-09T01:07:52.675Z,7.15
2024-05-09T01:12:54.519Z,7.10
2024-05-09T01:17:57.800Z,7.01
2024-05-09T01:23:01.300Z,6.94
2024-05-09T01:28:03.243Z,6.80
2024-05-09T01:33:08.060Z,6.72
2024-05-09T01:38:13.922Z,6.67
2024-05-09T01:43:16.295Z,6.70
2024-05-09T01:48:18.238Z,6.63
2024-05-09T01:53:20.159Z,6.58
2024-05-09T01:58:22.062Z,6.54
2024-05-09T02:03:24.199Z,6.49
2024-05-09T02:08:26.191Z,6.41
2024-05-09T02:13:28.059Z,6.37
2024-05-09T02:18:30.028Z,6.30
2024-05-09T02:23:32.007Z,6.24
2024-05-09T02:28:33.891Z,6.22
2024-05-09T02:33:36.006Z,6.20
2024-05-09T02:38:38.980Z,6.18
2024-05-09T02:43:40.923Z,6.13
2024-05-09T02:48:43.467Z,6.12
2024-05-09T02:53:45.472Z,6.15
2024-05-09T02:58:47.423Z,6.21
2024-05-09T03:03:51.012Z,6.24
2024-05-09T03:08:52.960Z,6.18
2024-05-09T03:13:55.332Z,6.18
2024-05-09T03:18:57.393Z,6.19
2024-05-09T03:23:59.324Z,6.18
2024-05-09T03:29:01.308Z,6.24
2024-05-09T03:34:03.384Z,6.40
2024-05-09T03:39:05.392Z,6.45
2024-05-09T03:44:08.062Z,6.44
2024-05-09T03:49:10.159Z,6.34
2024-05-09T03:54:12.717Z,6.28
2024-05-09T03:59:16.705Z,6.23
2024-05-09T04:04:18.630Z,6.17
2024-05-09T04:09:20.466Z,6.09
2024-05-09T04:14:22.364Z,6.03
2024-05-09T04:19:24.603Z,6.02
2024-05-09T04:24:26.537Z,6.14
2024-05-09T04:29:28.638Z,6.29
2024-05-09T04:34:30.635Z,6.38
2024-05-09T04:39:34.511Z,6.50
2024-05-09T04:44:36.529Z,6.63
2024-05-09T04:49:38.385Z,6.82
2024-05-09T04:54:40.226Z,7.03
2024-05-09T04:59:42.035Z,7.28
2024-05-09T05:04:45.168Z,7.50
2024-05-09T05:09:47.093Z,7.75
2024-05-09T05:14:49.099Z,8.05
2024-05-09T05:19:51.138Z,8.38
2024-05-09T05:24:53.051Z,8.65
2024-05-09T05:29:54.929Z,8.81
2024-05-09T05:34:56.844Z,9.18
2024-05-09T05:39:58.680Z,9.55
2024-05-09T05:45:00.698Z,9.84
2024-05-09T05:50:03.791Z,10.07
2024-05-09T05:55:07.272Z,10.23
2024-05-09T06:00:15.232Z,10.45
2024-05-09T06:05:24.785Z,10.68
2024-05-09T06:10:35.246Z,10.91
2024-05-09T06:15:41.344Z,11.08
2024-05-09T06:20:44.246Z,11.20
2024-05-09T06:25:46.530Z,11.43
2024-05-09T06:30:48.447Z,11.62
2024-05-09T06:35:50.486Z,11.97
2024-05-09T06:40:52.495Z,12.27
2024-05-09T06:45:54.437Z,12.40
2024-05-09T06:50:57.265Z,12.62
2024-05-09T06:55:59.291Z,12.82
2024-05-09T07:01:01.384Z,13.07
2024-05-09T07:06:03.518Z,13.36
2024-05-09T07:11:05.763Z,13.52
2024-05-09T07:16:07.783Z,13.74
2024-05-09T07:21:09.817Z,13.86
2024-05-09T07:26:11.970Z,14.01
2024-05-09T07:31:14.276Z,14.11
2024-05-09T07:36:16.311Z,14.26
2024-05-09T07:41:18.277Z,14.44
2024-05-09T07:56:30.183Z,15.04
2024-05-09T08:01:32.516Z,15.26
2024-05-09T08:06:34.614Z,15.44
2024-05-09T08:11:36.573Z,15.64
2024-05-09T08:16:38.538Z,15.92
2024-05-09T08:21:40.464Z,15.99
2024-05-09T08:26:42.372Z,15.98
2024-05-09T08:31:44.557Z,15.93
2024-05-09T08:36:46.541Z,16.07
2024-05-09T08:41:53.204Z,16.28
2024-05-09T08:46:56.079Z,16.26
2024-05-09T08:51:58.080Z,16.45
2024-05-09T08:57:01.224Z,16.65
2024-05-09T09:02:06.110Z,16.94
2024-05-09T09:07:08.111Z,16.89
2024-05-09T09:12:12.652Z,17.06
2024-05-09T09:17:16.138Z,17.06
2024-05-09T09:22:19.904Z,17.25
2024-05-09T09:27:22.602Z,17.27
2024-05-09T09:32:29.152Z,17.28
2024-05-09T09:37:31.455Z,16.97
2024-05-09T09:42:36.633Z,16.62
2024-05-09T09:47:40.667Z,16.84
2024-05-09T09:52:43.057Z,17.11
2024-05-09T09:57:45.205Z,17.28
2024-05-09T10:02:47.139Z,17.32
2024-05-09T10:07:49.419Z,17.34
2024-05-09T10:13:09.515Z,17.48
2024-05-09T10:18:11.741Z,17.62
2024-05-09T10:23:31.224Z,17.56
2024-05-09T10:28:35.337Z,17.56
2024-05-09T10:33:53.868Z,17.65
2024-05-09T10:38:56.196Z,17.60
2024-05-09T10:43:58.091Z,17.66
2024-05-09T10:49:03.318Z,17.69
2024-05-09T10:54:07.877Z,17.78
2024-05-09T10:59:09.799Z,17.74
2024-05-09T11:04:12.211Z,17.77
2024-05-09T11:09:14.858Z,17.87
2024-05-09T11:14:17.389Z,17.83
2024-05-09T11:19:19.907Z,17.92
2024-05-09T11:24:23.187Z,18.07
2024-05-09T11:29:43.313Z,18.12
2024-05-09T11:34:45.283Z,17.96
2024-05-09T11:39:47.279Z,18.03
2024-05-09T11:44:49.169Z,18.18
2024-05-09T11:49:51.113Z,18.25
2024-05-09T11:54:53.073Z,18.29
2024-05-09T11:59:55.215Z,18.31
2024-05-09T12:04:57.250Z,18.39
2024-05-09T12:09:59.277Z,18.45
2024-05-09T12:15:01.235Z,18.47
2024-05-09T12:20:04.314Z,18.59
2024-05-09T12:25:09.060Z,18.71
2024-05-09T12:30:14.236Z,18.73
2024-05-09T12:35:18.933Z,18.80
2024-05-09T12:40:26.875Z,18.66
2024-05-09T12:45:36.985Z,18.74
2024-05-09T12:50:39.578Z,18.93
2024-05-09T12:55:48.541Z,19.06
2024-05-09T13:00:58.333Z,19.00
2024-05-09T13:06:00.378Z,19.01
2024-05-09T13:11:02.348Z,19.07
2024-05-09T13:16:04.708Z,19.30
2024-05-09T13:21:06.634Z,19.08
2024-05-09T13:26:08.535Z,19.03
2024-05-09T13:31:10.473Z,19.39
2024-05-09T13:36:12.365Z,19.48
2024-05-09T13:41:14.291Z,19.51
2024-05-09T13:46:16.209Z,19.56
2024-05-09T13:51:18.188Z,19.34
2024-05-09T13:56:20.052Z,19.33
2024-05-09T14:01:21.962Z,19.34
2024-05-09T14:06:23.983Z,19.39
2024-05-09T14:11:25.945Z,19.42
2024-05-09T14:16:29.377Z,19.31
2024-05-09T14:21:31.344Z,19.37
2024-05-09T14:26:33.358Z,19.36
2024-05-09T14:31:37.894Z,19.18
2024-05-09T14:36:41.328Z,19.24
2024-05-09T14:41:43.261Z,19.35
2024-05-09T14:46:45.251Z,19.44
2024-05-09T14:51:48.171Z,19.41
2024-05-09T14:56:51.031Z,19.37
2024-05-09T15:01:53.035Z,19.34
2024-05-09T15:06:56.674Z,19.30
2024-05-09T15:12:01.527Z,19.32
2024-05-09T15:17:03.574Z,19.31
2024-05-09T15:22:05.602Z,19.32
2024-05-09T15:27:07.505Z,19.31
2024-05-09T15:32:09.563Z,19.30
2024-05-09T15:37:12.093Z,19.30
2024-05-09T15:42:14.020Z,19.33
2024-05-09T15:47:15.895Z,19.32
2024-05-09T15:52:18.109Z,19.26
2024-05-09T15:57:20.154Z,19.19
2024-05-09T16:02:22.254Z,19.06
2024-05-09T16:07:24.843Z,19.09
2024-05-09T16:12:26.695Z,19.07
2024-05-09T16:17:28.820Z,19.03
2024-05-09T16:22:31.309Z,19.05
2024-05-09T16:27:33.383Z,19.01
2024-05-09T16:32:35.350Z,18.92
2024-05-09T16:37:37.479Z,18.89
2024-05-09T16:42:39.535Z,18.82
2024-05-09T16:47:41.624Z,18.77
2024-05-09T16:52:43.761Z,18.74
2024-05-09T16:57:45.664Z,18.68
2024-05-09T17:02:47.577Z,18.63
2024-05-09T17:07:50.791Z,18.58
2024-05-09T17:12:52.993Z,18.50
2024-05-09T17:17:55.601Z,18.48
2024-05-09T17:22:57.797Z,18.45
2024-05-09T17:28:06.179Z,18.37
2024-05-09T17:33:10.681Z,18.27
2024-05-09T17:38:13.628Z,18.15
2024-05-09T17:43:15.666Z,18.02
2024-05-09T17:48:17.883Z,17.97
2024-05-09T17:53:31.789Z,17.85
2024-05-09T17:58:34.096Z,17.68
2024-05-09T18:03:36.420Z,17.52
2024-05-09T18:08:38.497Z,17.40
2024-05-09T18:13:40.379Z,17.21
2024-05-09T18:18:42.383Z,16.96
2024-05-09T18:23:44.339Z,16.78
2024-05-09T18:28:47.596Z,16.63
2024-05-09T18:33:49.773Z,16.32
2024-05-09T18:38:51.788Z,16.07
2024-05-09T18:43:54.309Z,15.83
2024-05-09T18:48:56.332Z,15.59
2024-05-09T18:53:58.237Z,15.27
2024-05-09T18:59:00.168Z,14.98
2024-05-09T19:04:02.301Z,14.72
2024-05-09T19:09:05.202Z,14.46
2024-05-09T19:14:07.689Z,14.36
2024-05-09T19:19:10.146Z,14.19
2024-05-09T19:24:12.111Z,14.02
2024-05-09T19:29:13.959Z,13.80
2024-05-09T19:34:16.732Z,13.59
2024-05-09T19:39:18.637Z,13.46
2024-05-09T19:44:20.545Z,13.41
2024-05-09T19:49:22.647Z,13.27
2024-05-09T19:54:24.672Z,13.03
2024-05-09T19:59:26.534Z,12.85
2024-05-09T20:04:28.662Z,12.84
2024-05-09T20:09:30.660Z,12.66
2024-05-09T20:14:32.496Z,12.39
2024-05-09T20:19:34.616Z,12.07
2024-05-09T20:24:36.712Z,11.88
2024-05-09T20:29:38.653Z,11.81
2024-05-09T20:34:40.677Z,11.76
2024-05-09T20:39:42.527Z,11.62
2024-05-09T20:44:44.382Z,11.53
2024-05-09T20:49:46.437Z,11.43
2024-05-09T20:54:48.338Z,11.35
2024-05-09T20:59:50.181Z,11.25
2024-05-09T21:04:52.162Z,11.07
2024-05-09T21:09:54.109Z,10.97
2024-05-09T21:14:55.977Z,10.99
2024-05-09T21:19:57.874Z,10.94
2024-05-09T21:25:00.026Z,10.87
2024-05-09T21:30:01.992Z,10.76
2024-05-09T21:35:04.283Z,10.70
2024-05-09T21:40:11.429Z,10.61
2024-05-09T21:45:15.707Z,10.45
2024-05-09T21:50:22.915Z,10.31
2024-05-09T21:55:30.279Z,10.20
2024-05-09T22:00:36.742Z,10.16
2024-05-09T22:05:43.725Z,10.03
2024-05-09T22:10:45.946Z,9.93
2024-05-09T22:15:49.207Z,9.81
2024-05-09T22:20:51.060Z,9.66
2024-05-09T22:25:52.910Z,9.65
2024-05-09T22:30:55.578Z,9.58
2024-05-09T22:35:57.468Z,9.59
2024-05-09T22:40:59.359Z,9.58
2024-05-09T22:46:03.102Z,9.40
2024-05-09T22:51:05.205Z,9.29
2024-05-09T22:56:07.601Z,9.39
2024-05-09T23:01:14.985Z,9.46
2024-05-09T23:06:16.952Z,9.48
2024-05-09T23:11:18.870Z,9.48
2024-05-09T23:16:20.965Z,9.43
2024-05-09T23:21:22.884Z,9.49
2024-05-09T23:26:24.731Z,9.40
2024-05-09T23:31:26.673Z,9.32
2024-05-09T23:36:29.363Z,9.27
2024-05-09T23:41:31.208Z,9.32
2024-05-09T23:46:33.129Z,9.24
2024-05-09T23:51:35.214Z,9.19
2024-05-09T23:56:37.169Z,9.03
